createdAt,value
2018-11-10T00:00:25.295Z,100090.52
2018-11-10T00:00:56.395Z,100093.12
2018-11-10T00:01:27.504Z,100086.61
2018-11-10T00:01:58.667Z,100090.09
2018-11-10T00:02:29.802Z,100093.52
2018-11-10T00:03:00.930Z,100091.75
2018-11-10T00:03:32.070Z,100095.24
2018-11-10T00:04:03.237Z,100092.20
2018-11-10T00:04:34.371Z,100090.48
2018-11-10T00:05:05.507Z,100089.18
2018-11-10T00:05:36.629Z,100087.87
2018-11-10T00:06:07.794Z,100089.64
2018-11-10T00:06:38.906Z,100094.39
2018-11-10T00:07:10.066Z,100093.09
2018-11-10T00:07:41.224Z,100093.52
2018-11-10T00:08:12.373Z,100093.02
2018-11-10T00:08:43.476Z,100090.83
2018-11-10T00:09:14.589Z,100093.86
2018-11-10T00:09:45.745Z,100091.22
2018-11-10T00:10:16.896Z,100088.19
2018-11-10T00:10:48.022Z,100094.20
2018-11-10T00:11:19.154Z,100091.25
2018-11-10T00:11:50.306Z,100097.34
2018-11-10T00:12:21.488Z,100094.81
2018-11-10T00:12:52.593Z,100092.67
2018-11-10T00:13:23.751Z,100096.16
2018-11-10T00:13:54.887Z,100088.34
2018-11-10T00:14:26.034Z,100097.42
2018-11-10T00:14:57.150Z,100097.39
2018-11-10T00:15:28.252Z,100093.52
2018-11-10T00:15:59.355Z,100092.63
2018-11-10T00:16:30.584Z,100095.23
2018-11-10T00:17:01.719Z,100097.42
2018-11-10T00:17:32.848Z,100094.32
2018-11-10T00:18:03.952Z,100093.86
2018-11-10T00:18:35.057Z,100093.02
2018-11-10T00:19:06.188Z,100091.44
2018-11-10T00:19:37.311Z,100091.97
2018-11-10T00:20:08.460Z,100097.19
2018-11-10T00:20:39.584Z,100101.52
2018-11-10T00:21:10.758Z,100100.18
2018-11-10T00:21:41.894Z,100098.45
2018-11-10T00:22:13.789Z,100094.51
2018-11-10T00:22:44.960Z,100099.26
2018-11-10T00:23:16.121Z,100101.37
2018-11-10T00:23:47.249Z,100098.77
2018-11-10T00:24:18.354Z,100096.58
2018-11-10T00:24:49.486Z,100093.97
2018-11-10T00:25:20.637Z,100092.20
2018-11-10T00:25:51.746Z,100092.59
2018-11-10T00:26:22.851Z,100098.19
2018-11-10T00:26:53.983Z,100096.39
2018-11-10T00:27:25.091Z,100096.31
2018-11-10T00:27:56.205Z,100096.70
2018-11-10T00:28:27.384Z,100090.18
2018-11-10T00:28:58.508Z,100092.33
2018-11-10T00:29:29.637Z,100092.75
2018-11-10T00:30:00.801Z,100093.17
2018-11-10T00:30:31.918Z,100087.11
2018-11-10T00:31:03.055Z,100085.81
2018-11-10T00:31:34.179Z,100089.76
2018-11-10T00:32:05.304Z,100089.77
2018-11-10T00:32:36.419Z,100084.20
2018-11-10T00:33:07.543Z,100090.75
2018-11-10T00:33:38.711Z,100081.24
2018-11-10T00:34:09.834Z,100088.19
2018-11-10T00:34:40.989Z,100083.81
2018-11-10T00:35:12.154Z,100082.52
2018-11-10T00:35:43.288Z,100083.39
2018-11-10T00:36:14.403Z,100075.57
2018-11-10T00:36:45.531Z,100083.85
2018-11-10T00:37:16.670Z,100078.22
2018-11-10T00:37:47.793Z,100079.56
2018-11-10T00:38:18.914Z,100081.70
2018-11-10T00:38:50.117Z,100080.41
2018-11-10T00:39:21.231Z,100081.28
2018-11-10T00:39:52.367Z,100081.74
2018-11-10T00:40:23.482Z,100081.32
2018-11-10T00:40:54.633Z,100082.20
2018-11-10T00:41:25.797Z,100083.89
2018-11-10T00:41:57.019Z,100079.94
2018-11-10T00:42:28.181Z,100085.16
2018-11-10T00:42:59.346Z,100085.16
2018-11-10T00:43:30.456Z,100082.59
2018-11-10T00:44:01.638Z,100078.68
2018-11-10T00:44:32.748Z,100084.31
2018-11-10T00:45:03.850Z,100083.44
2018-11-10T00:45:35.005Z,100080.41
2018-11-10T00:46:06.130Z,100080.86
2018-11-10T00:46:37.231Z,100082.59
2018-11-10T00:47:08.378Z,100076.98
2018-11-10T00:47:39.498Z,100080.89
2018-11-10T00:48:10.611Z,100078.75
2018-11-10T00:48:41.716Z,100078.75
2018-11-10T00:49:12.836Z,100076.14
2018-11-10T00:49:43.953Z,100077.87
2018-11-10T00:50:15.130Z,100076.98
2018-11-10T00:50:46.239Z,100080.52
2018-11-10T00:51:17.392Z,100077.09
2018-11-10T00:51:48.493Z,100077.98
2018-11-10T00:52:19.607Z,100078.02
2018-11-10T00:52:50.756Z,100072.80
2018-11-10T00:53:21.863Z,100076.72
2018-11-10T00:53:52.998Z,100070.70
2018-11-10T00:54:24.127Z,100075.95
2018-11-10T00:54:55.274Z,100076.83
2018-11-10T00:55:26.449Z,100075.14
2018-11-10T00:55:57.600Z,100076.44
2018-11-10T00:56:28.795Z,100075.14
2018-11-10T00:56:59.921Z,100076.48
2018-11-10T00:57:31.076Z,100079.16
2018-11-10T00:58:02.234Z,100076.55
2018-11-10T00:58:33.369Z,100077.43
2018-11-10T00:59:04.478Z,100076.55
2018-11-10T00:59:35.595Z,100074.79
2018-11-10T01:00:06.732Z,100076.48
2018-11-10T01:00:37.910Z,100072.95
2018-11-10T01:01:09.023Z,100072.99
2018-11-10T01:01:40.184Z,100079.09
2018-11-10T01:02:11.299Z,100080.84
2018-11-10T01:02:42.409Z,100077.85
2018-11-10T01:03:13.545Z,100076.16
2018-11-10T01:03:44.675Z,100076.16
2018-11-10T01:04:15.854Z,100076.59
2018-11-10T01:04:47.014Z,100075.32
2018-11-10T01:05:18.159Z,100076.23
2018-11-10T01:05:49.319Z,100077.96
2018-11-10T01:06:20.424Z,100074.97
2018-11-10T01:06:51.556Z,100072.36
2018-11-10T01:07:22.681Z,100077.54
2018-11-10T01:07:53.806Z,100075.78
2018-11-10T01:08:24.918Z,100072.36
2018-11-10T01:08:56.068Z,100072.36
2018-11-10T01:09:27.197Z,100075.81
2018-11-10T01:09:58.306Z,100070.18
2018-11-10T01:10:29.424Z,100074.13
2018-11-10T01:11:00.554Z,100072.86
2018-11-10T01:11:31.667Z,100072.02
2018-11-10T01:12:02.777Z,100074.19
2018-11-10T01:12:34.066Z,100067.64
2018-11-10T01:13:05.192Z,100074.62
2018-11-10T01:13:36.394Z,100067.22
2018-11-10T01:14:09.396Z,100076.34
2018-11-10T01:14:40.527Z,100068.95
2018-11-10T01:15:11.634Z,100072.36
2018-11-10T01:15:42.852Z,100072.78
2018-11-10T01:16:13.995Z,99876.42
2018-11-10T01:16:45.157Z,100069.34
2018-11-10T01:17:16.321Z,100070.67
2018-11-10T01:17:47.463Z,100072.86
2018-11-10T01:18:18.606Z,100067.26
2018-11-10T01:18:49.715Z,100068.17
2018-11-10T01:19:20.856Z,100073.45
2018-11-10T01:19:51.973Z,100073.88
2018-11-10T01:20:23.099Z,100066.94
2018-11-10T01:20:54.230Z,100072.15
2018-11-10T01:21:25.362Z,100069.97
2018-11-10T01:21:56.499Z,100071.69
2018-11-10T01:22:27.645Z,100067.36
2018-11-10T01:22:58.755Z,100074.33
2018-11-10T01:23:29.887Z,100072.57
2018-11-10T01:24:01.963Z,100070.84
2018-11-10T01:24:33.098Z,100068.24
2018-11-10T01:25:04.227Z,100069.55
2018-11-10T01:25:35.338Z,100069.58
2018-11-10T01:26:06.460Z,100068.73
2018-11-10T01:26:37.564Z,100069.23
2018-11-10T01:27:08.775Z,100070.98
2018-11-10T01:27:39.907Z,100064.47
2018-11-10T01:28:11.067Z,100067.53
2018-11-10T01:28:42.240Z,100063.17
2018-11-10T01:29:13.389Z,100065.77
2018-11-10T01:29:44.482Z,100067.50
2018-11-10T01:30:15.596Z,100059.66
2018-11-10T01:30:46.724Z,100062.22
2018-11-10T01:31:17.905Z,100067.43
2018-11-10T01:31:49.037Z,100064.83
2018-11-10T01:32:20.175Z,100063.13
2018-11-10T01:32:51.322Z,100060.56
2018-11-10T01:33:22.436Z,100063.17
2018-11-10T01:33:53.534Z,100054.52
2018-11-10T01:34:24.683Z,100059.27
2018-11-10T01:34:55.786Z,100061.87
2018-11-10T01:35:26.894Z,100063.13
2018-11-10T01:35:58.038Z,100062.71
2018-11-10T01:36:29.167Z,100060.53
2018-11-10T01:37:00.272Z,100064.02
2018-11-10T01:37:31.383Z,100062.25
2018-11-10T01:38:02.574Z,100064.89
2018-11-10T01:38:33.699Z,100065.77
2018-11-10T01:39:04.833Z,100061.45
2018-11-10T01:39:35.941Z,100061.45
2018-11-10T01:40:07.074Z,100062.36
2018-11-10T01:40:38.199Z,100054.52
2018-11-10T01:41:09.355Z,100058.84
2018-11-10T01:41:40.495Z,100056.23
2018-11-10T01:42:11.611Z,100057.11
2018-11-10T01:42:42.733Z,100054.52
2018-11-10T01:43:13.885Z,100055.42
2018-11-10T01:43:44.992Z,100051.52
2018-11-10T01:44:16.124Z,100052.39
2018-11-10T01:44:47.241Z,100055.45
2018-11-10T01:45:18.345Z,100055.45
2018-11-10T01:45:49.450Z,100053.77
2018-11-10T01:46:20.561Z,100058.94
2018-11-10T01:46:51.705Z,100051.55
2018-11-10T01:47:22.848Z,100055.03
2018-11-10T01:47:54.049Z,100054.64
2018-11-10T01:48:25.220Z,100053.73
2018-11-10T01:48:56.331Z,100052.43
2018-11-10T01:49:27.446Z,100054.16
2018-11-10T01:49:58.584Z,100052.86
2018-11-10T01:50:29.692Z,100055.03
2018-11-10T01:51:00.822Z,100054.64
2018-11-10T01:51:31.929Z,100058.13
2018-11-10T01:52:03.077Z,100060.31
2018-11-10T01:52:34.178Z,100058.16
2018-11-10T01:53:05.292Z,100058.20
2018-11-10T01:53:36.468Z,100060.83
2018-11-10T01:54:07.599Z,100059.11
2018-11-10T01:54:38.724Z,100058.66
2018-11-10T01:55:09.892Z,100055.20
2018-11-10T01:55:41.437Z,100055.23
2018-11-10T01:56:12.629Z,100059.14
2018-11-10T01:56:43.764Z,100055.76
2018-11-10T01:57:14.901Z,100058.78
2018-11-10T01:57:46.130Z,100060.08
2018-11-10T01:58:17.234Z,100060.08
2018-11-10T01:58:48.363Z,100058.33
2018-11-10T01:59:19.501Z,100051.39
2018-11-10T01:59:50.614Z,100054.88
2018-11-10T02:00:22.506Z,100061.42
2018-11-10T02:00:53.622Z,100055.33
2018-11-10T02:01:24.733Z,100055.75
2018-11-10T02:01:55.841Z,100054.00
2018-11-10T02:02:26.977Z,100055.72
2018-11-10T02:02:58.088Z,100060.02
2018-11-10T02:03:29.215Z,100056.53
2018-11-10T02:04:00.350Z,100060.86
2018-11-10T02:04:31.678Z,100057.38
2018-11-10T02:05:02.779Z,100058.27
2018-11-10T02:05:33.963Z,100058.72
2018-11-10T02:06:05.120Z,100058.36
2018-11-10T02:06:36.347Z,100056.70
2018-11-10T02:07:07.505Z,100056.73
2018-11-10T02:07:38.614Z,100052.41
2018-11-10T02:08:09.763Z,100048.95
2018-11-10T02:08:40.919Z,100048.04
2018-11-10T02:09:12.032Z,100041.98
2018-11-10T02:09:43.210Z,100049.80
2018-11-10T02:10:14.303Z,100048.95
2018-11-10T02:10:45.486Z,100051.59
2018-11-10T02:11:16.604Z,100045.95
2018-11-10T02:11:47.735Z,100052.46
2018-11-10T02:12:18.844Z,100052.92
2018-11-10T02:12:49.956Z,100056.02
2018-11-10T02:13:21.072Z,100050.80
2018-11-10T02:13:52.202Z,100056.44
2018-11-10T02:14:23.338Z,100053.83
2018-11-10T02:14:54.480Z,100048.27
2018-11-10T02:15:25.674Z,100053.53
2018-11-10T02:15:56.838Z,100048.84
2018-11-10T02:16:27.952Z,100051.02
2018-11-10T02:16:59.094Z,100054.05
2018-11-10T02:17:30.286Z,100048.44
2018-11-10T02:18:01.399Z,100047.17
2018-11-10T02:18:32.551Z,100050.20
2018-11-10T02:19:03.659Z,100055.83
2018-11-10T02:19:34.791Z,100057.55
2018-11-10T02:20:05.908Z,100051.92
2018-11-10T02:20:37.055Z,100054.53
2018-11-10T02:21:08.182Z,100051.08
2018-11-10T02:21:39.304Z,100057.55
2018-11-10T02:22:10.412Z,100052.41
2018-11-10T02:22:41.574Z,100053.74
2018-11-10T02:23:12.726Z,100050.23
2018-11-10T02:23:43.880Z,100049.35
2018-11-10T02:24:15.017Z,100049.32
2018-11-10T02:24:46.155Z,100055.83
2018-11-10T02:25:17.355Z,100053.23
2018-11-10T02:25:48.519Z,100048.02
2018-11-10T02:26:19.765Z,100052.80
2018-11-10T02:26:50.885Z,100054.10
2018-11-10T02:27:22.039Z,100047.59
2018-11-10T02:27:53.179Z,100051.50
2018-11-10T02:28:24.284Z,100054.50
2018-11-10T02:28:55.442Z,100052.77
2018-11-10T02:29:28.290Z,100053.23
2018-11-10T02:29:59.408Z,100053.23
2018-11-10T02:30:30.565Z,100055.80
2018-11-10T02:31:01.672Z,100055.38
2018-11-10T02:31:32.839Z,100054.08
2018-11-10T02:32:03.941Z,100056.67
2018-11-10T02:32:35.056Z,100055.80
2018-11-10T02:33:06.188Z,100057.10
2018-11-10T02:33:37.416Z,100054.98
2018-11-10T02:34:08.525Z,100057.13
2018-11-10T02:34:39.659Z,100054.95
2018-11-10T02:35:10.810Z,100055.44
2018-11-10T02:35:41.939Z,100051.95
2018-11-10T02:36:13.056Z,100054.55
2018-11-10T02:36:44.216Z,100050.34
2018-11-10T02:37:15.347Z,100054.70
2018-11-10T02:37:46.477Z,100055.09
2018-11-10T02:38:17.611Z,100053.34
2018-11-10T02:38:48.859Z,100050.29
2018-11-10T02:39:19.919Z,100052.44
2018-11-10T02:39:51.051Z,100056.77
2018-11-10T02:40:22.190Z,100052.83
2018-11-10T02:40:53.300Z,100056.28
2018-11-10T02:41:24.425Z,100052.83
2018-11-10T02:41:55.563Z,100056.70
2018-11-10T02:42:26.677Z,100051.50
2018-11-10T02:42:57.788Z,100051.92
2018-11-10T02:43:28.897Z,100060.16
2018-11-10T02:44:00.026Z,100051.47
2018-11-10T02:44:31.910Z,100057.95
2018-11-10T02:45:03.052Z,100054.47
2018-11-10T02:45:34.176Z,100050.14
2018-11-10T02:46:05.272Z,100050.56
2018-11-10T02:46:36.404Z,100054.89
2018-11-10T02:47:07.559Z,100054.47
2018-11-10T02:47:38.719Z,100052.32
2018-11-10T02:48:09.897Z,100041.94
2018-11-10T02:48:41.035Z,100050.17
2018-11-10T02:49:12.152Z,100053.23
2018-11-10T02:49:43.284Z,100051.05
2018-11-10T02:50:14.390Z,100053.23
2018-11-10T02:50:45.543Z,100048.92
2018-11-10T02:51:16.656Z,100048.98
2018-11-10T02:51:47.809Z,100048.56
2018-11-10T02:52:18.994Z,100052.05
2018-11-10T02:52:50.184Z,100045.99
2018-11-10T02:53:21.299Z,100045.94
2018-11-10T02:53:52.428Z,100049.38
2018-11-10T02:54:23.609Z,100043.27
2018-11-10T02:54:54.751Z,100045.84
2018-11-10T02:55:25.950Z,100044.97
2018-11-10T02:55:57.101Z,100044.97
2018-11-10T02:56:28.234Z,100044.09
2018-11-10T02:56:59.390Z,100042.36
2018-11-10T02:57:30.546Z,100041.52
2018-11-10T02:58:01.684Z,100042.33
2018-11-10T02:58:32.831Z,100043.63
2018-11-10T02:59:03.954Z,100045.36
2018-11-10T02:59:35.088Z,100043.63
2018-11-10T03:00:06.243Z,100042.33
2018-11-10T03:00:37.436Z,100046.23
2018-11-10T03:01:08.573Z,100044.12
2018-11-10T03:01:39.743Z,99877.90
2018-11-10T03:02:10.916Z,100042.82
2018-11-10T03:02:42.050Z,100044.55
2018-11-10T03:03:13.180Z,100043.66
2018-11-10T03:03:44.326Z,100047.14
2018-11-10T03:04:15.433Z,100039.34
2018-11-10T03:04:47.187Z,100044.55
2018-11-10T03:05:18.310Z,100048.90
2018-11-10T03:05:49.442Z,100043.72
2018-11-10T03:06:20.603Z,100043.75
2018-11-10T03:06:51.781Z,100049.84
2018-11-10T03:07:22.923Z,100040.73
2018-11-10T03:07:54.046Z,100040.70
2018-11-10T03:08:25.174Z,100039.43
2018-11-10T03:08:56.297Z,100040.30
2018-11-10T03:09:27.409Z,100040.73
2018-11-10T03:09:58.549Z,100041.61
2018-11-10T03:10:29.706Z,100040.73
2018-11-10T03:11:00.819Z,100044.14
2018-11-10T03:11:32.000Z,100043.27
2018-11-10T03:12:03.133Z,100044.14
2018-11-10T03:12:34.241Z,100045.45
2018-11-10T03:13:05.420Z,100046.78
2018-11-10T03:13:36.536Z,100049.84
2018-11-10T03:14:07.662Z,100048.53
2018-11-10T03:14:38.818Z,100046.39
2018-11-10T03:15:10.013Z,100046.80
2018-11-10T03:15:41.138Z,100044.69
2018-11-10T03:16:12.291Z,100041.21
2018-11-10T03:16:43.404Z,100050.31
2018-11-10T03:17:14.526Z,100042.55
2018-11-10T03:17:45.659Z,100049.08
2018-11-10T03:18:16.770Z,100046.08
2018-11-10T03:18:47.889Z,100041.78
2018-11-10T03:19:19.055Z,100050.92
2018-11-10T03:19:50.173Z,100046.14
2018-11-10T03:20:21.342Z,100044.87
2018-11-10T03:20:52.467Z,100040.51
2018-11-10T03:21:23.595Z,100044.02
2018-11-10T03:21:54.750Z,100048.73
2018-11-10T03:22:25.927Z,100044.41
2018-11-10T03:22:57.078Z,100016.48
2018-11-10T03:23:28.200Z,100044.41
2018-11-10T03:23:59.322Z,100042.72
2018-11-10T03:24:30.465Z,100040.99
2018-11-10T03:25:01.589Z,100049.67
2018-11-10T03:25:32.766Z,100040.59
2018-11-10T03:26:03.878Z,100044.50
2018-11-10T03:26:34.998Z,100043.20
2018-11-10T03:27:06.134Z,100041.47
2018-11-10T03:27:37.315Z,100038.45
2018-11-10T03:28:08.426Z,100041.95
2018-11-10T03:28:39.568Z,100041.10
2018-11-10T03:29:10.705Z,100039.80
2018-11-10T03:29:41.879Z,100037.69
2018-11-10T03:30:13.027Z,100037.28
2018-11-10T03:30:44.164Z,100044.23
2018-11-10T03:31:15.294Z,100038.61
2018-11-10T03:31:46.407Z,100040.34
2018-11-10T03:32:17.548Z,100041.61
2018-11-10T03:32:48.657Z,100044.64
2018-11-10T03:33:19.798Z,100045.48
2018-11-10T03:33:50.897Z,100041.58
2018-11-10T03:34:22.025Z,100049.84
2018-11-10T03:34:53.162Z,100048.97
2018-11-10T03:35:24.294Z,100042.88
2018-11-10T03:35:55.408Z,100048.09
2018-11-10T03:36:26.531Z,100042.00
2018-11-10T03:36:57.689Z,100041.58
2018-11-10T03:37:28.804Z,100011.92
2018-11-10T03:37:59.912Z,100041.19
2018-11-10T03:38:31.073Z,100047.23
2018-11-10T03:39:02.224Z,100044.23
2018-11-10T03:39:33.331Z,100038.64
2018-11-10T03:40:04.498Z,100043.42
2018-11-10T03:40:35.664Z,100044.29
2018-11-10T03:41:06.793Z,100041.27
2018-11-10T03:41:37.941Z,100039.52
2018-11-10T03:42:09.047Z,100045.59
2018-11-10T03:42:40.148Z,100045.16
2018-11-10T03:43:11.260Z,100042.17
2018-11-10T03:43:42.397Z,100043.48
2018-11-10T03:44:13.542Z,100046.50
2018-11-10T03:44:44.674Z,100048.25
2018-11-10T03:45:15.848Z,100048.25
2018-11-10T03:45:46.990Z,100038.74
2018-11-10T03:46:18.125Z,100037.05
2018-11-10T03:46:49.247Z,100041.43
2018-11-10T03:47:20.402Z,100044.48
2018-11-10T03:47:51.541Z,100046.25
2018-11-10T03:48:22.679Z,100045.01
2018-11-10T03:48:53.939Z,100042.00
2018-11-10T03:49:24.969Z,100040.75
2018-11-10T03:49:56.087Z,100043.38
2018-11-10T03:50:27.219Z,100043.41
2018-11-10T03:50:58.361Z,100045.60
2018-11-10T03:51:29.486Z,100044.77
2018-11-10T03:52:00.655Z,100039.60
2018-11-10T03:52:31.817Z,100040.92
2018-11-10T03:53:02.923Z,100041.82
2018-11-10T03:53:34.068Z,100039.22
2018-11-10T03:54:05.235Z,100039.27
2018-11-10T03:54:36.352Z,100045.80
2018-11-10T03:55:07.536Z,100041.91
2018-11-10T03:55:38.667Z,100039.77
2018-11-10T03:56:09.808Z,100038.49
2018-11-10T03:56:41.712Z,100039.36
2018-11-10T03:57:12.832Z,100042.86
2018-11-10T03:57:43.937Z,100041.58
2018-11-10T03:58:15.046Z,100040.33
2018-11-10T03:58:46.171Z,100041.62
2018-11-10T03:59:17.344Z,100047.71
2018-11-10T03:59:48.490Z,100043.02
2018-11-10T04:00:19.653Z,100043.90
2018-11-10T04:00:50.781Z,100046.52
2018-11-10T04:01:21.902Z,100046.92
2018-11-10T04:01:53.019Z,100049.09
2018-11-10T04:02:24.155Z,100047.76
2018-11-10T04:02:55.359Z,100047.71
2018-11-10T04:03:26.476Z,100049.02
2018-11-10T04:03:57.602Z,100048.14
2018-11-10T04:04:28.759Z,100052.48
2018-11-10T04:04:59.887Z,100054.23
2018-11-10T04:05:31.143Z,100052.95
2018-11-10T04:06:02.272Z,100051.23
2018-11-10T04:06:33.457Z,100052.55
2018-11-10T04:07:04.574Z,100061.22
2018-11-10T04:07:35.715Z,100058.61
2018-11-10T04:08:06.828Z,100056.03
2018-11-10T04:08:37.951Z,100059.50
2018-11-10T04:09:09.062Z,100054.72
2018-11-10T04:09:40.220Z,100057.77
2018-11-10T04:10:11.322Z,100058.64
2018-11-10T04:10:42.463Z,100059.98
2018-11-10T04:11:13.575Z,100059.14
2018-11-10T04:11:44.711Z,100062.63
2018-11-10T04:12:15.822Z,100063.52
2018-11-10T04:12:46.937Z,100057.95
2018-11-10T04:13:18.094Z,100056.22
2018-11-10T04:13:49.204Z,100061.88
2018-11-10T04:14:20.362Z,100063.20
2018-11-10T04:14:51.526Z,100058.89
2018-11-10T04:15:22.635Z,100060.21
2018-11-10T04:15:53.761Z,100058.91
2018-11-10T04:16:24.876Z,100059.78
2018-11-10T04:16:56.998Z,100058.49
2018-11-10T04:17:28.121Z,100058.54
2018-11-10T04:17:59.254Z,100055.96
2018-11-10T04:18:30.379Z,100059.88
2018-11-10T04:19:01.485Z,100062.10
2018-11-10T04:19:32.650Z,100055.20
2018-11-10T04:20:03.835Z,100059.98
2018-11-10T04:20:35.755Z,100059.11
2018-11-10T04:21:06.857Z,100061.32
2018-11-10T04:21:37.964Z,100059.16
2018-11-10T04:22:09.066Z,100057.44
2018-11-10T04:22:40.202Z,100060.89
2018-11-10T04:23:11.325Z,100057.45
2018-11-10T04:23:42.498Z,100058.73
2018-11-10T04:24:13.647Z,100061.73
2018-11-10T04:24:44.796Z,100057.83
2018-11-10T04:25:15.910Z,100056.13
2018-11-10T04:25:47.056Z,100059.14
2018-11-10T04:26:18.194Z,100066.52
2018-11-10T04:26:49.330Z,100056.59
2018-11-10T04:27:20.917Z,100057.00
2018-11-10T04:27:52.090Z,100059.59
2018-11-10T04:28:23.235Z,100054.88
2018-11-10T04:28:54.356Z,100055.77
2018-11-10T04:29:25.459Z,100059.25
2018-11-10T04:29:56.562Z,100061.83
2018-11-10T04:30:27.693Z,100054.52
2018-11-10T04:30:58.817Z,100054.93
2018-11-10T04:31:29.955Z,100054.09
2018-11-10T04:32:01.103Z,100057.13
2018-11-10T04:32:32.234Z,100060.16
2018-11-10T04:33:03.422Z,100056.72
2018-11-10T04:33:34.538Z,100055.88
2018-11-10T04:34:05.675Z,100052.85
2018-11-10T04:34:36.804Z,100061.06
2018-11-10T04:35:07.935Z,100059.34
2018-11-10T04:35:39.051Z,100055.44
2018-11-10T04:36:10.165Z,100052.41
2018-11-10T04:36:41.296Z,100055.02
2018-11-10T04:37:12.452Z,100048.55
2018-11-10T04:37:43.565Z,100051.55
2018-11-10T04:38:14.672Z,100052.38
2018-11-10T04:38:45.765Z,100055.42
2018-11-10T04:39:16.877Z,100056.28
2018-11-10T04:39:47.991Z,100053.69
2018-11-10T04:40:19.096Z,100055.41
2018-11-10T04:40:50.263Z,100054.53
2018-11-10T04:41:21.383Z,100057.13
2018-11-10T04:41:52.511Z,100055.84
2018-11-10T04:42:23.620Z,100054.97
2018-11-10T04:42:54.766Z,100054.13
2018-11-10T04:43:25.867Z,100052.85
2018-11-10T04:43:57.772Z,100055.44
2018-11-10T04:44:28.887Z,100055.48
2018-11-10T04:44:59.990Z,100054.63
2018-11-10T04:45:31.124Z,100058.94
2018-11-10T04:46:02.322Z,100060.23
2018-11-10T04:46:33.467Z,100059.84
2018-11-10T04:47:04.588Z,100058.53
2018-11-10T04:47:35.744Z,100057.25
2018-11-10T04:48:06.865Z,100058.11
2018-11-10T04:48:38.877Z,100055.09
2018-11-10T04:49:10.016Z,100059.00
2018-11-10T04:49:41.161Z,100062.06
2018-11-10T04:50:12.285Z,100059.45
2018-11-10T04:50:43.419Z,100058.58
2018-11-10T04:51:14.619Z,100059.43
2018-11-10T04:51:45.759Z,100062.89
2018-11-10T04:52:16.863Z,100061.58
2018-11-10T04:52:48.002Z,100061.16
2018-11-10T04:53:19.169Z,100068.94
2018-11-10T04:53:50.308Z,100068.05
2018-11-10T04:54:21.423Z,100068.52
2018-11-10T04:54:52.530Z,100069.82
2018-11-10T04:55:23.664Z,100072.84
2018-11-10T04:55:54.764Z,100067.66
2018-11-10T04:56:25.891Z,100070.69
2018-11-10T04:56:57.053Z,100070.25
2018-11-10T04:57:28.174Z,100067.23
2018-11-10T04:57:59.275Z,100068.94
2018-11-10T04:58:30.447Z,100071.97
2018-11-10T04:59:38.905Z,100070.67
2018-11-10T05:00:10.106Z,100071.14
2018-11-10T05:00:41.261Z,100073.28
2018-11-10T05:01:12.389Z,100074.58
2018-11-10T05:01:43.550Z,100077.17
2018-11-10T05:02:14.675Z,100076.34
2018-11-10T05:02:46.637Z,100073.77
2018-11-10T05:03:17.733Z,100073.33
2018-11-10T05:03:48.893Z,100079.40
2018-11-10T05:04:20.031Z,100072.08
2018-11-10T05:04:51.227Z,100075.54
2018-11-10T05:05:22.314Z,100072.53
2018-11-10T05:05:53.417Z,100075.13
2018-11-10T05:06:24.542Z,100075.59
2018-11-10T05:06:55.677Z,100073.84
2018-11-10T05:07:26.848Z,100072.57
2018-11-10T05:07:57.978Z,100073.42
2018-11-10T05:08:29.116Z,100073.02
2018-11-10T05:09:00.267Z,100068.68
2018-11-10T05:09:31.390Z,100074.77
2018-11-10T05:10:02.496Z,100073.92
2018-11-10T05:10:33.604Z,100078.23
2018-11-10T05:11:04.738Z,100073.92
2018-11-10T05:11:35.843Z,100072.64
2018-11-10T05:12:06.974Z,100071.77
2018-11-10T05:12:38.094Z,100074.38
2018-11-10T05:13:09.260Z,100077.83
2018-11-10T05:13:40.373Z,100075.69
2018-11-10T05:14:11.470Z,100070.52
2018-11-10T05:14:44.781Z,100074.83
2018-11-10T05:15:15.930Z,100079.58
2018-11-10T05:15:47.050Z,100072.27
2018-11-10T05:16:18.173Z,100075.30
2018-11-10T05:16:49.308Z,100077.04
2018-11-10T05:17:20.442Z,100076.61
2018-11-10T05:17:51.571Z,100079.22
2018-11-10T05:18:22.743Z,100080.53
2018-11-10T05:18:53.932Z,100076.62
2018-11-10T05:19:25.063Z,100079.67
2018-11-10T05:19:56.219Z,100082.25
2018-11-10T05:20:27.919Z,100076.20
2018-11-10T05:20:59.044Z,100074.50
2018-11-10T05:21:30.202Z,100077.50
2018-11-10T05:22:01.306Z,100083.11
2018-11-10T05:22:32.442Z,100076.65
2018-11-10T05:23:03.582Z,100077.48
2018-11-10T05:23:34.739Z,100082.24
2018-11-10T05:24:05.863Z,100081.37
2018-11-10T05:24:36.982Z,100076.60
2018-11-10T05:25:08.103Z,100078.76
2018-11-10T05:25:39.244Z,100079.20
2018-11-10T05:26:10.373Z,100080.91
2018-11-10T05:26:41.498Z,100076.59
2018-11-10T05:27:12.609Z,100078.30
2018-11-10T05:27:43.745Z,100079.59
2018-11-10T05:28:14.856Z,100080.45
2018-11-10T05:28:46.029Z,100078.73
2018-11-10T05:29:17.154Z,100081.73
2018-11-10T05:29:48.282Z,100083.05
2018-11-10T05:30:19.405Z,100083.47
2018-11-10T05:30:50.594Z,100085.61
2018-11-10T05:31:21.696Z,100083.01
2018-11-10T05:31:52.817Z,100082.13
2018-11-10T05:32:23.991Z,100084.70
2018-11-10T05:32:55.123Z,100083.83
2018-11-10T05:33:26.303Z,100089.45
2018-11-10T05:33:57.500Z,100085.59
2018-11-10T05:34:28.638Z,100087.31
2018-11-10T05:34:59.780Z,100088.63
2018-11-10T05:35:30.882Z,100093.38
2018-11-10T05:36:02.024Z,100089.04
2018-11-10T05:36:33.118Z,100086.45
2018-11-10T05:37:04.209Z,100090.77
2018-11-10T05:37:35.334Z,100097.25
2018-11-10T05:38:06.586Z,100089.02
2018-11-10T05:38:37.710Z,100095.09
2018-11-10T05:39:08.834Z,100095.08
2018-11-10T05:39:39.965Z,100091.63
2018-11-10T05:40:11.141Z,100096.80
2018-11-10T05:40:42.256Z,100097.25
2018-11-10T05:41:13.392Z,100095.10
2018-11-10T05:41:44.521Z,100096.40
2018-11-10T05:42:15.644Z,100093.34
2018-11-10T05:42:46.753Z,100096.80
2018-11-10T05:43:17.857Z,100095.94
2018-11-10T05:43:48.982Z,100100.25
2018-11-10T05:44:20.119Z,100105.41
2018-11-10T05:44:51.258Z,100099.36
2018-11-10T05:45:22.400Z,100100.20
2018-11-10T05:45:53.530Z,100098.44
2018-11-10T05:46:24.683Z,100103.62
2018-11-10T05:46:55.787Z,100100.59
2018-11-10T05:47:26.932Z,100100.16
2018-11-10T05:47:58.050Z,100097.13
2018-11-10T05:48:29.209Z,100100.17
2018-11-10T05:49:00.365Z,100103.61
2018-11-10T05:49:31.482Z,100102.75
2018-11-10T05:50:02.640Z,100106.61
2018-11-10T05:50:33.841Z,100104.02
2018-11-10T05:51:05.006Z,100111.80
2018-11-10T05:51:36.139Z,100111.80
2018-11-10T05:52:07.253Z,100109.18
2018-11-10T05:52:38.376Z,100106.59
2018-11-10T05:53:09.494Z,100110.05
2018-11-10T05:53:40.619Z,100111.78
2018-11-10T05:54:11.740Z,100107.86
2018-11-10T05:54:42.896Z,100109.56
2018-11-10T05:55:14.033Z,100113.02
2018-11-10T05:55:45.186Z,100114.29
2018-11-10T05:56:16.306Z,100109.09